Time;durP1;ratioP1;P1;durP2;ratioP2;P2;SDS_P1;SDS_P2;PMS_P1;PMS_P2;Temp;Humidity;BMP_temperature;BMP_pressure;BME280_temperature;BME280_humidity;BME280_pressure;Samples;Min_cycle;Max_cycle;Signal;HPM_P1;HPM_P2
2022/09/25 00:00:57;;;;;;;4.82;2.45;;;19.10;92.60;;;;;;4995974;28;20190;-67
2022/09/25 00:03:26;;;;;;;6.07;2.90;;;19.10;92.50;;;;;;4996141;28;20198;-66
2022/09/25 00:06:03;;;;;;;7.75;2.80;;;19.10;92.80;;;;;;4995828;28;20254;-67
2022/09/25 00:08:29;;;;;;;5.38;2.47;;;19.10;93.00;;;;;;4995744;28;20179;-67
2022/09/25 00:10:55;;;;;;;6.75;2.47;;;19.10;93.40;;;;;;4995848;28;20180;-66
2022/09/25 00:13:21;;;;;;;4.75;2.55;;;19.10;93.80;;;;;;5012158;28;20211;-67
2022/09/25 00:15:56;;;;;;;8.85;2.50;;;19.10;94.00;;;;;;4979475;28;20203;-66
2022/09/25 00:21:13;;;;;;;12.18;2.90;;;19.10;94.00;;;;;;4995612;28;20245;-67
2022/09/25 00:23:42;;;;;;;8.77;2.63;;;19.10;94.20;;;;;;4995748;28;20173;-66
2022/09/25 00:26:08;;;;;;;9.27;2.47;;;19.20;95.00;;;;;;4995396;28;20303;-67
2022/09/25 00:28:35;;;;;;;3.55;2.50;;;19.30;94.50;;;;;;4995331;28;20214;-67
2022/09/25 00:31:03;;;;;;;11.82;2.80;;;19.30;95.00;;;;;;4995320;28;20190;-67
2022/09/25 00:33:31;;;;;;;4.00;2.63;;;19.30;94.80;;;;;;4995344;28;20208;-67
2022/09/25 00:36:05;;;;;;;4.00;2.30;;;19.30;94.90;;;;;;4995572;28;20204;-67
2022/09/25 00:38:34;;;;;;;4.40;2.30;;;19.30;94.80;;;;;;5010585;28;20392;-67
2022/09/25 00:41:03;;;;;;;4.87;2.33;;;19.30;94.30;;;;;;4978045;28;20495;-67
2022/09/25 00:43:55;;;;;;;4.75;1.83;;;19.30;93.80;;;;;;4995297;28;20187;-67
2022/09/25 00:46:41;;;;;;;3.38;2.30;;;19.30;94.00;;;;;;4976163;28;20255;-67
2022/09/25 00:49:20;;;;;;;4.40;2.10;;;19.30;94.80;;;;;;4976152;28;20208;-66
2022/09/25 00:52:00;;;;;;;3.92;1.67;;;19.30;94.30;;;;;;4993090;28;20165;-65
2022/09/25 00:54:38;;;;;;;2.92;1.85;;;19.30;94.80;;;;;;4991866;28;20259;-65
2022/09/25 00:57:10;;;;;;;5.72;2.10;;;19.30;95.10;;;;;;4975522;28;20181;-65
2022/09/25 00:59:42;;;;;;;3.25;2.33;;;19.30;95.30;;;;;;4975964;28;20180;-65
2022/09/25 01:02:17;;;;;;;5.20;2.05;;;19.30;95.70;;;;;;4959901;28;20177;-66
2022/09/25 01:04:46;;;;;;;6.40;2.10;;;19.30;95.70;;;;;;4993008;28;20215;-66
2022/09/25 01:07:13;;;;;;;6.00;1.90;;;19.30;96.20;;;;;;4975352;28;20275;-65
2022/09/25 01:09:40;;;;;;;2.80;1.83;;;19.30;95.00;;;;;;4959424;28;20211;-66
2022/09/25 01:12:06;;;;;;;2.92;1.70;;;19.30;95.50;;;;;;4991588;28;20303;-66
2022/09/25 01:14:33;;;;;;;4.45;1.60;;;19.30;96.40;;;;;;4992843;28;20692;-66
2022/09/25 01:17:18;;;;;;;3.15;2.05;;;19.30;95.80;;;;;;4993100;28;20212;-66
2022/09/25 01:20:20;;;;;;;3.13;1.70;;;19.30;96.00;;;;;;4975506;28;20236;-66
2022/09/25 01:23:16;;;;;;;3.47;1.65;;;19.30;96.40;;;;;;4992915;28;20231;-66
2022/09/25 01:26:38;;;;;;;2.33;1.50;;;19.30;95.60;;;;;;4975821;28;20200;-66
2022/09/25 01:30:02;;;;;;;1.90;1.70;;;19.30;96.10;;;;;;4975698;28;20196;-66
2022/09/25 01:32:55;;;;;;;3.00;2.15;;;19.30;97.20;;;;;;4991064;28;20232;-66
2022/09/25 01:35:46;;;;;;;2.13;1.77;;;19.30;95.80;;;;;;4975648;28;20208;-66
2022/09/25 01:38:39;;;;;;;4.30;1.70;;;19.30;96.10;;;;;;4975367;28;20269;-67
2022/09/25 01:41:27;;;;;;;3.25;1.80;;;19.30;97.10;;;;;;4991826;28;20168;-66
2022/09/25 01:44:05;;;;;;;4.10;1.45;;;19.30;96.80;;;;;;4991708;28;20794;-66
2022/09/25 01:46:40;;;;;;;3.75;1.85;;;19.30;96.90;;;;;;5083489;22;20267;-72
2022/09/25 01:49:15;;;;;;;2.50;1.65;;;19.20;97.10;;;;;;5037504;28;20722;-71
2022/09/25 01:51:49;;;;;;;8.45;1.95;;;19.20;97.10;;;;;;5054152;28;20238;-71
2022/09/25 01:54:31;;;;;;;2.47;1.63;;;19.30;98.20;;;;;;5072086;28;20213;-70
2022/09/25 01:57:08;;;;;;;8.43;1.63;;;19.30;97.70;;;;;;5034028;28;20178;-71
2022/09/25 01:59:58;;;;;;;3.85;1.40;;;19.30;97.60;;;;;;5034102;28;20179;-71
2022/09/25 02:02:36;;;;;;;5.28;1.67;;;19.30;97.80;;;;;;5037907;28;20634;-71
2022/09/25 02:05:20;;;;;;;2.42;1.50;;;19.30;97.50;;;;;;5054294;28;20210;-71
2022/09/25 02:08:00;;;;;;;2.85;1.80;;;19.30;97.30;;;;;;5053982;28;20548;-71
2022/09/25 02:10:44;;;;;;;2.47;1.45;;;19.30;97.50;;;;;;5054583;28;20175;-72
2022/09/25 02:13:19;;;;;;;1.38;1.20;;;19.30;97.80;;;;;;5054836;28;20210;-71
2022/09/25 02:15:54;;;;;;;2.83;1.40;;;19.30;98.20;;;;;;5053791;28;20205;-70
2022/09/25 02:21:21;;;;;;;2.50;1.40;;;19.30;99.10;;;;;;5023628;28;20214;-71
2022/09/25 02:24:08;;;;;;;3.08;1.70;;;19.30;99.50;;;;;;5037240;28;20192;-72
2022/09/25 02:26:36;;;;;;;2.83;1.45;;;19.30;99.40;;;;;;5054893;28;20212;-72
2022/09/25 02:29:02;;;;;;;9.18;1.70;;;19.30;98.80;;;;;;5037778;28;20267;-70
2022/09/25 02:31:48;;;;;;;8.85;1.52;;;19.20;99.80;;;;;;5045044;28;20615;-72
2022/09/25 02:34:13;;;;;;;4.68;1.90;;;19.30;99.90;;;;;;5034053;28;20215;-71
2022/09/25 02:36:39;;;;;;;5.50;1.50;;;19.20;99.90;;;;;;5034662;28;20207;-70
2022/09/25 02:39:08;;;;;;;5.55;1.90;;;19.20;99.70;;;;;;5039423;28;20212;-71
2022/09/25 02:42:34;;;;;;;2.65;1.48;;;19.20;99.90;;;;;;5049820;28;20228;-71
2022/09/25 02:45:17;;;;;;;9.02;1.48;;;19.20;99.90;;;;;;4976879;28;20220;-71
2022/09/25 02:48:10;;;;;;;2.25;1.35;;;19.20;99.90;;;;;;5053394;28;20170;-71
2022/09/25 02:51:11;;;;;;;2.47;1.63;;;19.20;99.90;;;;;;5053798;28;20189;-72
2022/09/25 02:54:03;;;;;;;2.78;1.30;;;19.20;99.90;;;;;;5037251;28;20301;-71
2022/09/25 02:56:39;;;;;;;2.35;1.55;;;19.20;99.90;;;;;;5036915;28;20210;-72
2022/09/25 02:59:23;;;;;;;1.88;1.38;;;19.20;99.90;;;;;;5036414;28;20232;-72
2022/09/25 03:01:50;;;;;;;2.58;1.20;;;19.20;99.90;;;;;;5036959;28;20182;-71
2022/09/25 03:04:18;;;;;;;3.33;1.40;;;19.20;99.90;;;;;;5036699;28;20182;-72
2022/09/25 03:06:45;;;;;;;2.30;1.30;;;19.20;99.90;;;;;;5036196;28;20281;-72
2022/09/25 03:09:14;;;;;;;1.58;1.48;;;19.20;99.90;;;;;;5036694;28;20190;-72
2022/09/25 03:11:41;;;;;;;1.45;1.35;;;19.20;99.90;;;;;;5053124;28;20224;-72
2022/09/25 03:14:07;;;;;;;4.38;1.65;;;19.20;99.90;;;;;;5036295;28;20225;-72
2022/09/25 03:16:57;;;;;;;3.83;1.52;;;19.20;99.90;;;;;;5019820;28;20230;-71
2022/09/25 03:19:27;;;;;;;1.35;1.23;;;19.20;99.90;;;;;;5036494;28;20189;-72
2022/09/25 03:21:53;;;;;;;2.17;1.45;;;19.20;99.90;;;;;;5020075;28;20194;-71
2022/09/25 03:24:20;;;;;;;2.42;1.17;;;19.20;99.90;;;;;;5036254;28;20182;-72
2022/09/25 03:26:46;;;;;;;1.52;1.13;;;19.20;99.90;;;;;;5035929;28;20202;-71
2022/09/25 03:29:14;;;;;;;3.80;1.42;;;19.20;99.90;;;;;;5019608;28;20216;-71
2022/09/25 03:31:44;;;;;;;1.92;1.52;;;19.20;99.90;;;;;;5035878;28;20178;-72
2022/09/25 03:34:12;;;;;;;2.72;1.40;;;19.20;99.90;;;;;;5035859;28;20217;-72
2022/09/25 03:36:39;;;;;;;2.38;1.20;;;19.20;99.90;;;;;;5036354;28;20309;-72
2022/09/25 03:39:06;;;;;;;4.57;1.40;;;19.30;99.90;;;;;;5035721;28;20658;-72
2022/09/25 03:41:34;;;;;;;1.70;1.10;;;19.20;99.90;;;;;;5035761;28;20216;-72
2022/09/25 03:44:00;;;;;;;3.20;1.38;;;19.20;99.90;;;;;;5019527;28;20186;-72
2022/09/25 03:46:30;;;;;;;2.75;1.00;;;19.30;99.90;;;;;;5035532;28;20264;-72
2022/09/25 03:48:58;;;;;;;1.65;1.10;;;19.30;99.90;;;;;;5019285;28;20187;-72
2022/09/25 03:51:26;;;;;;;2.85;1.20;;;19.30;99.90;;;;;;5035882;28;20186;-72
2022/09/25 03:53:52;;;;;;;2.20;1.13;;;19.30;99.90;;;;;;5052086;28;20246;-72
2022/09/25 03:56:22;;;;;;;3.42;1.30;;;19.30;99.90;;;;;;5053242;28;20233;-72
2022/09/25 03:58:50;;;;;;;2.97;1.10;;;19.30;99.90;;;;;;5035392;28;20175;-72
2022/09/25 04:01:20;;;;;;;1.35;1.20;;;19.30;99.90;;;;;;5035863;28;20206;-72
2022/09/25 04:03:47;;;;;;;1.55;1.35;;;19.30;99.90;;;;;;5035476;28;20217;-72
2022/09/25 04:06:17;;;;;;;1.42;1.08;;;19.30;99.90;;;;;;5053167;28;20205;-72
2022/09/25 04:08:45;;;;;;;2.10;1.20;;;19.30;99.90;;;;;;5052976;28;20244;-71
2022/09/25 04:11:11;;;;;;;10.18;1.38;;;19.30;99.90;;;;;;5053302;28;20240;-72
2022/09/25 04:13:37;;;;;;;1.52;0.88;;;19.30;99.90;;;;;;5052881;28;20198;-72
2022/09/25 04:16:05;;;;;;;1.20;1.00;;;19.30;99.90;;;;;;5035366;28;20252;-71
2022/09/25 04:18:32;;;;;;;2.22;1.23;;;19.30;99.90;;;;;;5018484;28;20179;-72
2022/09/25 04:21:04;;;;;;;1.88;1.17;;;19.30;99.90;;;;;;5035028;28;20179;-71
2022/09/25 04:23:31;;;;;;;1.95;1.30;;;19.30;99.90;;;;;;5034978;28;20187;-71
2022/09/25 04:25:57;;;;;;;1.63;1.25;;;19.30;99.90;;;;;;5035115;28;20255;-71
2022/09/25 04:28:24;;;;;;;5.32;1.23;;;19.20;99.90;;;;;;5052914;28;20336;-71
2022/09/25 04:30:51;;;;;;;1.10;0.93;;;19.20;99.90;;;;;;5035003;28;20225;-71
2022/09/25 04:36:03;;;;;;;1.23;1.08;;;19.20;99.90;;;;;;5034775;28;20198;-70
2022/09/25 04:38:31;;;;;;;2.42;1.00;;;19.20;99.90;;;;;;5034555;28;20281;-70
2022/09/25 04:41:01;;;;;;;1.95;1.00;;;19.20;99.90;;;;;;5034882;28;20249;-70
2022/09/25 04:43:31;;;;;;;2.60;0.90;;;19.20;99.90;;;;;;5034988;28;20265;-71
2022/09/25 04:46:07;;;;;;;2.03;1.10;;;19.20;99.90;;;;;;5034771;28;20317;-72
2022/09/25 04:48:34;;;;;;;2.97;1.00;;;19.20;99.90;;;;;;5034684;28;20174;-72
2022/09/25 04:51:00;;;;;;;3.40;1.10;;;19.20;99.90;;;;;;5034828;28;20190;-71
2022/09/25 04:53:28;;;;;;;2.85;1.00;;;19.20;99.90;;;;;;5034749;28;20274;-71
2022/09/25 04:56:06;;;;;;;4.40;1.00;;;19.20;99.90;;;;;;5034783;28;20206;-71
2022/09/25 04:58:33;;;;;;;4.78;1.15;;;19.20;99.90;;;;;;5034642;28;20181;-71
2022/09/25 05:01:08;;;;;;;1.98;1.20;;;19.20;99.90;;;;;;5034788;28;20185;-71
2022/09/25 05:03:34;;;;;;;1.50;1.00;;;19.20;99.90;;;;;;5051133;28;20186;-71
2022/09/25 05:06:00;;;;;;;1.25;1.00;;;19.20;99.90;;;;;;5018170;28;20569;-71
2022/09/25 05:08:26;;;;;;;1.73;0.98;;;19.20;99.90;;;;;;5034186;28;20190;-72
2022/09/25 05:10:52;;;;;;;1.52;0.90;;;19.20;99.90;;;;;;5051098;28;20186;-72
2022/09/25 05:13:18;;;;;;;1.40;1.20;;;19.20;99.90;;;;;;5034269;28;20210;-72
2022/09/25 05:15:43;;;;;;;4.28;1.15;;;19.20;99.90;;;;;;5034570;28;20251;-72
2022/09/25 05:18:20;;;;;;;2.28;0.85;;;19.20;99.90;;;;;;5033995;28;20237;-72
2022/09/25 05:20:46;;;;;;;2.22;0.98;;;19.20;99.90;;;;;;5051323;28;20196;-71
2022/09/25 05:23:12;;;;;;;2.47;1.27;;;19.20;99.90;;;;;;5034583;28;20174;-71
2022/09/25 05:25:38;;;;;;;2.78;1.00;;;19.20;99.90;;;;;;5034263;28;20257;-71
2022/09/25 05:28:04;;;;;;;2.55;1.40;;;19.20;99.90;;;;;;5034021;28;20277;-70
2022/09/25 05:30:33;;;;;;;1.30;1.20;;;19.30;99.90;;;;;;5017975;28;20198;-71
2022/09/25 05:32:59;;;;;;;1.98;1.30;;;19.30;99.90;;;;;;5017692;28;20256;-71
2022/09/25 05:35:31;;;;;;;1.80;1.33;;;19.30;99.90;;;;;;5035894;28;20211;-70
2022/09/25 05:37:57;;;;;;;5.20;1.20;;;19.30;99.90;;;;;;5038101;28;20178;-76
2022/09/25 05:40:24;;;;;;;4.82;1.08;;;19.30;99.90;;;;;;5021587;28;20189;-71
2022/09/25 05:42:51;;;;;;;4.38;1.23;;;19.40;99.90;;;;;;5038152;28;20743;-71
2022/09/25 05:45:19;;;;;;;4.78;1.23;;;19.30;99.90;;;;;;5021724;28;20282;-71
2022/09/25 05:47:45;;;;;;;2.13;1.42;;;19.20;99.90;;;;;;5037780;28;20233;-71
2022/09/25 05:50:14;;;;;;;2.95;1.05;;;19.20;99.90;;;;;;5037903;28;20194;-71
2022/09/25 05:52:40;;;;;;;3.60;1.50;;;19.20;99.90;;;;;;5021556;28;20222;-71
2022/09/25 05:55:07;;;;;;;2.80;1.23;;;19.20;99.90;;;;;;5038115;28;20228;-71
2022/09/25 05:57:34;;;;;;;5.07;1.52;;;19.20;99.90;;;;;;5037693;28;20277;-71
2022/09/25 06:00:03;;;;;;;3.38;1.30;;;19.10;99.90;;;;;;5038002;28;20186;-71
2022/09/25 06:02:37;;;;;;;6.25;1.70;;;19.20;99.90;;;;;;5039100;28;20185;-71
2022/09/25 06:05:03;;;;;;;4.88;1.50;;;19.20;99.90;;;;;;5037739;28;20202;-71
2022/09/25 06:07:29;;;;;;;4.72;1.27;;;19.20;99.90;;;;;;5037557;28;20190;-71
2022/09/25 06:09:55;;;;;;;4.20;1.67;;;19.20;99.90;;;;;;5017837;28;20329;-71
2022/09/25 06:12:23;;;;;;;2.92;1.50;;;19.20;99.90;;;;;;5035394;28;20203;-71
2022/09/25 06:14:51;;;;;;;5.05;2.55;;;19.20;99.90;;;;;;5037590;28;20263;-71
2022/09/25 06:17:17;;;;;;;3.35;1.70;;;19.20;99.90;;;;;;5055055;28;20183;-70
2022/09/25 06:19:42;;;;;;;5.05;1.88;;;19.20;99.90;;;;;;5037512;28;20178;-71
2022/09/25 06:22:08;;;;;;;6.18;1.90;;;19.20;99.90;;;;;;5037133;28;20242;-71
2022/09/25 06:24:34;;;;;;;2.83;1.85;;;19.20;99.90;;;;;;5061642;28;20186;-71
2022/09/25 06:26:59;;;;;;;4.03;1.90;;;19.20;99.90;;;;;;5053175;28;20218;-71
2022/09/25 06:29:25;;;;;;;2.47;1.73;;;19.20;99.90;;;;;;5035403;28;20262;-71
2022/09/25 06:31:51;;;;;;;1.88;1.55;;;19.20;99.90;;;;;;5035949;28;20187;-71
2022/09/25 06:34:18;;;;;;;3.40;2.13;;;19.20;99.90;;;;;;5036901;28;20214;-71
2022/09/25 06:36:44;;;;;;;2.17;1.90;;;19.20;99.90;;;;;;5037009;28;20305;-72
2022/09/25 06:39:09;;;;;;;5.05;1.85;;;19.20;99.90;;;;;;5061775;28;20277;-72
2022/09/25 06:41:35;;;;;;;3.42;2.25;;;19.20;99.90;;;;;;5037235;28;20246;-72
2022/09/25 06:44:01;;;;;;;2.92;1.65;;;19.20;99.90;;;;;;5017006;28;20210;-74
2022/09/25 06:46:27;;;;;;;2.47;1.60;;;19.20;99.90;;;;;;5035391;28;20229;-74
2022/09/25 06:48:56;;;;;;;3.67;2.08;;;19.20;99.90;;;;;;5033571;28;20183;-74
2022/09/25 06:51:22;;;;;;;2.50;1.65;;;19.20;99.90;;;;;;5036464;28;20235;-74
2022/09/25 06:53:52;;;;;;;6.72;2.25;;;19.20;99.90;;;;;;5054427;28;20287;-74
2022/09/25 06:56:18;;;;;;;9.55;2.33;;;19.20;99.90;;;;;;5036599;28;20201;-72
2022/09/25 06:58:44;;;;;;;2.85;2.13;;;19.20;99.90;;;;;;5036421;28;20186;-72
2022/09/25 07:01:12;;;;;;;3.92;2.45;;;19.20;99.90;;;;;;5035641;28;20225;-71
2022/09/25 07:03:45;;;;;;;4.97;2.28;;;19.20;99.90;;;;;;5036423;28;20248;-71
2022/09/25 07:06:20;;;;;;;11.63;2.72;;;19.20;99.90;;;;;;5036352;28;20214;-70
2022/09/25 07:08:48;;;;;;;21.80;10.07;;;19.30;99.90;;;;;;5053052;28;20438;-74
2022/09/25 07:11:22;;;;;;;22.38;11.25;;;16.80;99.90;;;;;;5052927;28;20598;-70
2022/09/25 07:13:50;;;;;;;24.65;9.30;;;15.90;99.90;;;;;;5036304;28;20210;-70
2022/09/25 07:16:18;;;;;;;13.65;4.82;;;17.30;99.90;;;;;;5069529;28;20206;-71
2022/09/25 07:18:45;;;;;;;11.75;5.30;;;18.00;99.70;;;;;;5019555;28;20191;-71
2022/09/25 07:21:20;;;;;;;13.13;5.70;;;18.40;96.10;;;;;;5036335;28;20217;-71
2022/09/25 07:23:48;;;;;;;20.77;6.07;;;18.70;94.50;;;;;;5057377;28;20190;-70
2022/09/25 07:26:21;;;;;;;21.13;8.38;;;18.80;94.50;;;;;;5036399;28;20292;-71
2022/09/25 07:29:02;;;;;;;10.20;5.05;;;18.00;92.30;;;;;;5019676;28;20190;-71
2022/09/25 07:31:34;;;;;;;12.77;5.22;;;18.20;95.90;;;;;;5035978;28;20190;-71
2022/09/25 07:34:07;;;;;;;17.33;4.97;;;18.60;93.50;;;;;;5035946;28;20218;-70
2022/09/25 07:36:37;;;;;;;6.28;5.00;;;18.80;92.70;;;;;;5036139;28;20206;-70
2022/09/25 07:39:04;;;;;;;9.07;4.80;;;18.90;92.10;;;;;;5035606;28;20190;-70
2022/09/25 07:41:29;;;;;;;5.13;4.00;;;19.00;91.70;;;;;;5035919;28;20187;-70
2022/09/25 07:43:57;;;;;;;5.18;3.17;;;19.00;90.80;;;;;;5035887;28;20197;-70
2022/09/25 07:46:30;;;;;;;5.32;3.70;;;19.00;90.70;;;;;;5053369;22;20263;-65
2022/09/25 07:48:55;;;;;;;8.88;4.30;;;19.00;90.60;;;;;;5044262;28;20184;-66
2022/09/25 07:51:22;;;;;;;6.55;3.60;;;19.00;90.80;;;;;;5011822;28;20189;-65
2022/09/25 07:53:48;;;;;;;8.95;3.75;;;19.00;90.50;;;;;;5027694;28;20247;-65
2022/09/25 07:56:14;;;;;;;3.88;3.30;;;19.00;90.60;;;;;;5039013;28;20214;-65
2022/09/25 07:58:40;;;;;;;7.53;3.40;;;19.00;90.60;;;;;;5030256;28;20207;-66
2022/09/25 08:01:11;;;;;;;5.85;3.50;;;19.00;90.30;;;;;;5031723;28;20256;-66
2022/09/25 08:03:37;;;;;;;4.35;3.22;;;19.00;90.10;;;;;;5048159;28;20175;-65
2022/09/25 08:06:12;;;;;;;5.70;3.22;;;19.00;90.00;;;;;;5047889;28;20214;-65
2022/09/25 08:08:42;;;;;;;10.77;3.15;;;19.00;89.80;;;;;;5030910;28;20197;-66
2022/09/25 08:11:12;;;;;;;9.95;3.35;;;19.10;90.10;;;;;;5014673;28;20286;-65
2022/09/25 08:13:40;;;;;;;5.40;3.03;;;19.10;90.20;;;;;;5047825;28;20219;-66
2022/09/25 08:16:11;;;;;;;5.05;2.22;;;19.10;90.30;;;;;;5047593;28;20214;-65
2022/09/25 08:18:40;;;;;;;6.78;3.10;;;19.00;90.30;;;;;;5031024;28;20171;-65
2022/09/25 08:21:06;;;;;;;4.93;3.17;;;19.10;90.40;;;;;;5031203;28;20241;-65
2022/09/25 08:23:32;;;;;;;6.78;3.30;;;19.10;90.50;;;;;;5047552;28;20179;-66
2022/09/25 08:25:59;;;;;;;7.20;3.30;;;19.10;90.60;;;;;;5047456;28;20565;-65
2022/09/25 08:28:25;;;;;;;7.80;3.63;;;19.10;90.60;;;;;;5031028;28;20179;-66
2022/09/25 08:30:51;;;;;;;9.52;3.65;;;19.10;90.70;;;;;;5031081;28;20194;-66
2022/09/25 08:33:16;;;;;;;7.85;3.08;;;19.10;90.80;;;;;;5030417;28;20269;-65
2022/09/25 08:35:42;;;;;;;11.32;3.80;;;19.10;90.80;;;;;;5014184;28;20427;-65
2022/09/25 08:38:11;;;;;;;8.55;3.67;;;19.10;90.90;;;;;;5027208;28;20176;-65
2022/09/25 08:40:50;;;;;;;8.88;3.33;;;19.10;90.90;;;;;;5009272;28;20187;-64
2022/09/25 08:43:22;;;;;;;10.27;3.72;;;19.10;90.90;;;;;;5027828;28;20662;-64
2022/09/25 08:49:01;;;;;;;11.68;3.38;;;19.10;90.70;;;;;;5028275;28;20183;-66
2022/09/25 08:51:38;;;;;;;8.30;3.80;;;19.10;90.60;;;;;;5028535;28;20178;-64
2022/09/25 08:54:04;;;;;;;6.95;3.38;;;19.10;90.50;;;;;;5029537;28;20238;-66
2022/09/25 08:56:34;;;;;;;7.22;3.30;;;19.10;90.40;;;;;;5012489;28;20694;-66
2022/09/25 08:59:32;;;;;;;9.82;3.70;;;19.10;90.40;;;;;;5045744;28;20211;-66
2022/09/25 09:02:09;;;;;;;8.02;3.85;;;19.10;90.40;;;;;;5009950;28;20225;-66
2022/09/25 09:04:47;;;;;;;5.40;3.30;;;19.10;90.50;;;;;;5008347;28;20214;-66
2022/09/25 09:07:38;;;;;;;10.13;3.22;;;19.10;90.40;;;;;;5028309;28;20209;-65
2022/09/25 09:10:06;;;;;;;9.80;3.15;;;19.00;90.40;;;;;;5009850;28;20278;-65
2022/09/25 09:12:49;;;;;;;6.03;3.25;;;19.00;90.40;;;;;;5012955;28;20226;-66
2022/09/25 09:15:31;;;;;;;6.85;2.88;;;19.00;90.40;;;;;;5028137;28;20206;-67
2022/09/25 09:18:04;;;;;;;6.28;2.85;;;19.10;90.40;;;;;;5028307;28;20195;-66
2022/09/25 09:21:21;;;;;;;6.95;3.08;;;19.10;90.30;;;;;;5028885;28;20224;-66
2022/09/25 09:24:34;;;;;;;6.10;2.65;;;19.10;90.30;;;;;;5010579;28;20218;-66
2022/09/25 09:27:31;;;;;;;4.05;2.97;;;19.10;90.10;;;;;;5029892;28;20203;-66
2022/09/25 09:30:19;;;;;;;6.57;2.90;;;19.00;90.10;;;;;;5011931;28;20199;-67
2022/09/25 09:33:11;;;;;;;5.07;3.00;;;19.10;90.40;;;;;;5012090;28;20222;-66
2022/09/25 09:36:04;;;;;;;5.78;2.60;;;19.10;90.00;;;;;;5030040;28;20215;-66
2022/09/25 09:39:04;;;;;;;9.10;3.22;;;19.00;89.90;;;;;;5030960;28;20176;-66
2022/09/25 09:41:53;;;;;;;5.00;2.67;;;19.00;89.90;;;;;;5030858;28;20226;-66
2022/09/25 09:44:34;;;;;;;6.57;3.28;;;19.00;89.60;;;;;;5032083;28;20179;-66
2022/09/25 09:47:49;;;;;;;3.28;2.58;;;19.00;89.60;;;;;;5030669;28;20215;-66
2022/09/25 09:50:36;;;;;;;5.88;2.97;;;19.10;89.60;;;;;;5046079;28;20200;-66
2022/09/25 09:53:26;;;;;;;7.80;2.90;;;19.10;89.40;;;;;;5047558;28;20211;-66
2022/09/25 09:56:03;;;;;;;4.40;2.70;;;19.00;89.10;;;;;;5010291;28;20212;-66
2022/09/25 09:58:54;;;;;;;3.60;2.63;;;19.10;89.20;;;;;;5011999;28;20318;-66
2022/09/25 10:01:27;;;;;;;3.63;2.60;;;19.00;88.90;;;;;;5027394;28;20267;-66
2022/09/25 10:04:03;;;;;;;4.28;2.40;;;19.00;89.00;;;;;;5011209;28;20190;-66
2022/09/25 10:06:34;;;;;;;4.82;2.47;;;19.00;88.90;;;;;;5010892;28;20207;-66
2022/09/25 10:09:00;;;;;;;5.03;3.28;;;19.00;89.40;;;;;;5027266;28;20173;-67
2022/09/25 10:11:31;;;;;;;3.83;2.63;;;19.00;88.40;;;;;;5027275;28;20184;-66
2022/09/25 10:14:00;;;;;;;3.42;2.58;;;19.00;88.60;;;;;;5010856;28;20566;-66
2022/09/25 10:16:27;;;;;;;3.85;2.40;;;19.00;88.50;;;;;;5010617;28;20698;-66
2022/09/25 10:19:09;;;;;;;4.50;2.40;;;19.10;88.40;;;;;;5027072;28;20188;-66
2022/09/25 10:21:51;;;;;;;6.15;2.90;;;19.00;88.30;;;;;;5028592;28;20169;-67
2022/09/25 10:24:52;;;;;;;2.83;2.30;;;19.00;88.30;;;;;;5014140;28;20184;-67
2022/09/25 10:27:35;;;;;;;3.70;2.60;;;19.00;88.20;;;;;;5031017;28;20179;-66
2022/09/25 10:30:08;;;;;;;3.85;2.13;;;19.10;87.90;;;;;;5030637;28;20195;-66
2022/09/25 10:32:50;;;;;;;3.75;2.65;;;19.10;87.90;;;;;;5030727;28;20200;-66
2022/09/25 10:35:21;;;;;;;3.53;2.60;;;19.00;87.70;;;;;;5030786;28;20280;-66
2022/09/25 10:37:54;;;;;;;3.00;2.50;;;19.10;87.70;;;;;;5030668;28;20195;-67
2022/09/25 10:40:26;;;;;;;4.82;2.72;;;19.10;87.40;;;;;;5014419;28;20203;-66
2022/09/25 10:43:10;;;;;;;5.18;2.70;;;19.00;87.60;;;;;;5014469;28;20184;-65
2022/09/25 10:45:39;;;;;;;2.50;2.20;;;19.10;87.30;;;;;;5028397;28;20208;-67
2022/09/25 10:51:20;;;;;;;2.20;1.80;;;19.10;87.30;;;;;;5014367;28;20263;-66
2022/09/25 10:54:08;;;;;;;2.95;2.20;;;19.10;87.00;;;;;;5013293;28;20249;-67
2022/09/25 10:56:37;;;;;;;2.90;2.05;;;19.10;86.70;;;;;;4993119;28;20212;-66
2022/09/25 10:59:20;;;;;;;3.50;2.08;;;19.10;86.60;;;;;;5029495;28;20196;-66
2022/09/25 11:01:49;;;;;;;4.95;2.30;;;19.10;86.80;;;;;;5014266;28;20563;-66
2022/09/25 11:04:30;;;;;;;4.47;2.20;;;19.10;86.80;;;;;;5029498;28;20188;-66
2022/09/25 11:07:00;;;;;;;4.07;2.35;;;19.10;86.70;;;;;;5029431;28;20262;-67
2022/09/25 11:09:31;;;;;;;4.78;2.58;;;19.10;86.50;;;;;;5029075;28;20199;-66
2022/09/25 11:12:25;;;;;;;3.08;2.30;;;19.10;86.30;;;;;;5029435;28;20199;-66
2022/09/25 11:15:04;;;;;;;5.40;2.28;;;19.10;86.30;;;;;;5029297;28;20620;-66
2022/09/25 11:17:41;;;;;;;2.60;2.40;;;19.10;85.70;;;;;;5019909;28;20183;-65
2022/09/25 11:20:16;;;;;;;4.55;2.50;;;19.10;85.60;;;;;;5033722;28;20163;-67
2022/09/25 11:22:58;;;;;;;3.33;2.50;;;19.10;85.60;;;;;;5016078;28;20233;-66
2022/09/25 11:25:52;;;;;;;2.78;1.98;;;19.10;85.50;;;;;;5032402;28;20234;-66
2022/09/25 11:28:51;;;;;;;4.65;1.98;;;19.10;85.50;;;;;;5032060;28;20245;-64
2022/09/25 11:31:29;;;;;;;3.05;2.08;;;19.10;85.00;;;;;;5032397;28;20252;-66
2022/09/25 11:34:07;;;;;;;3.58;2.17;;;19.10;85.00;;;;;;5031155;28;20214;-66
2022/09/25 11:36:43;;;;;;;3.00;2.50;;;19.10;84.90;;;;;;5015270;28;20203;-66
2022/09/25 11:42:24;;;;;;;3.95;1.92;;;19.10;85.50;;;;;;5033397;28;20187;-66
2022/09/25 11:45:23;;;;;;;3.47;2.50;;;19.10;85.50;;;;;;5031811;28;20675;-65
2022/09/25 11:48:02;;;;;;;2.55;2.08;;;19.10;85.10;;;;;;5031886;28;20259;-67
2022/09/25 11:51:08;;;;;;;4.35;2.35;;;19.10;85.30;;;;;;5031858;28;20191;-66
2022/09/25 11:54:24;;;;;;;2.13;1.92;;;19.10;85.00;;;;;;5031759;28;20226;-66
2022/09/25 11:57:22;;;;;;;2.88;1.77;;;19.10;84.90;;;;;;5031819;28;20235;-66
2022/09/25 12:00:22;;;;;;;2.65;2.13;;;19.10;85.00;;;;;;5019102;28;20201;-66
2022/09/25 12:03:09;;;;;;;4.28;2.03;;;19.10;84.90;;;;;;5015199;28;20206;-66
2022/09/25 12:05:50;;;;;;;2.47;1.98;;;19.10;84.80;;;;;;5014714;28;20211;-66
2022/09/25 12:08:37;;;;;;;2.63;2.10;;;19.10;84.70;;;;;;5031424;28;20214;-66
2022/09/25 12:11:24;;;;;;;2.10;1.77;;;19.10;84.50;;;;;;5014994;28;20191;-66
2022/09/25 12:14:21;;;;;;;2.08;1.88;;;19.10;84.30;;;;;;5031212;28;20214;-66
2022/09/25 12:17:26;;;;;;;2.67;2.00;;;19.10;84.60;;;;;;5014984;28;20225;-66
2022/09/25 12:20:06;;;;;;;3.00;2.15;;;19.10;84.50;;;;;;5031089;28;20277;-66
2022/09/25 12:22:47;;;;;;;4.18;2.10;;;19.10;84.60;;;;;;5031441;28;20191;-66
2022/09/25 12:25:48;;;;;;;2.92;2.22;;;19.10;84.30;;;;;;5047748;28;20226;-66
2022/09/25 12:28:40;;;;;;;3.67;2.72;;;19.10;84.20;;;;;;5031169;28;20195;-66
2022/09/25 12:31:41;;;;;;;2.78;2.05;;;19.10;84.20;;;;;;5028586;28;20203;-66
2022/09/25 12:34:36;;;;;;;2.92;2.15;;;19.10;83.70;;;;;;5047460;28;20214;-66
2022/09/25 12:37:32;;;;;;;2.78;2.13;;;19.10;84.00;;;;;;5014389;28;20210;-65
2022/09/25 12:40:03;;;;;;;3.17;2.38;;;19.10;83.60;;;;;;5030904;28;20183;-66
2022/09/25 12:42:48;;;;;;;2.95;2.20;;;19.10;83.60;;;;;;5014564;28;20207;-66
2022/09/25 12:45:20;;;;;;;2.53;2.10;;;19.10;83.60;;;;;;5014065;28;20254;-66
2022/09/25 12:48:36;;;;;;;3.53;1.95;;;19.10;84.00;;;;;;5030890;28;20183;-66
2022/09/25 12:51:24;;;;;;;3.65;2.00;;;19.10;83.60;;;;;;5031612;28;20207;-66
2022/09/25 12:53:57;;;;;;;3.30;2.28;;;19.10;83.10;;;;;;5014070;28;20223;-67
2022/09/25 12:56:36;;;;;;;2.58;2.10;;;19.10;83.30;;;;;;5047574;28;20356;-66
2022/09/25 12:59:17;;;;;;;4.10;2.17;;;19.10;83.60;;;;;;5047409;28;20209;-66
2022/09/25 13:02:00;;;;;;;2.95;2.35;;;19.10;83.50;;;;;;5030822;28;20298;-66
2022/09/25 13:04:49;;;;;;;3.00;2.13;;;19.10;83.60;;;;;;5030850;28;20184;-67
2022/09/25 13:07:59;;;;;;;3.92;2.42;;;19.10;83.30;;;;;;5047344;28;20257;-66
2022/09/25 13:10:38;;;;;;;2.10;1.85;;;19.10;83.50;;;;;;4987304;28;20212;-66
2022/09/25 13:13:18;;;;;;;2.50;2.10;;;19.10;84.40;;;;;;5010822;28;20250;-66
2022/09/25 13:15:52;;;;;;;2.75;1.98;;;19.10;83.60;;;;;;5010796;28;20211;-66
2022/09/25 13:18:23;;;;;;;3.85;2.22;;;19.10;83.60;;;;;;5010688;28;20210;-66
2022/09/25 13:20:57;;;;;;;2.80;2.45;;;19.10;83.60;;;;;;5010599;28;20282;-66
2022/09/25 13:23:40;;;;;;;2.38;2.17;;;19.10;83.30;;;;;;4994449;28;20306;-66
2022/09/25 13:26:13;;;;;;;3.03;2.03;;;19.10;84.00;;;;;;4994240;28;20207;-66
2022/09/25 13:28:53;;;;;;;2.40;2.20;;;19.10;82.90;;;;;;5031484;28;20206;-66
2022/09/25 13:31:30;;;;;;;2.33;2.00;;;19.10;82.70;;;;;;5030427;28;20179;-67
2022/09/25 13:33:59;;;;;;;3.25;2.10;;;19.10;82.90;;;;;;5030522;28;20215;-66
2022/09/25 13:36:25;;;;;;;3.83;2.22;;;19.10;83.00;;;;;;5013668;28;20207;-66
2022/09/25 13:41:54;;;;;;;2.67;2.10;;;19.10;82.40;;;;;;5030156;28;20208;-66
2022/09/25 13:44:42;;;;;;;2.22;2.03;;;19.10;82.50;;;;;;5030315;28;20237;-66
2022/09/25 13:47:23;;;;;;;2.38;2.17;;;19.10;82.40;;;;;;5062762;22;20250;-71
2022/09/25 13:50:22;;;;;;;3.17;2.53;;;19.10;82.50;;;;;;5029560;28;20199;-71